sensor_id;sensor_type;location;lat;lon;timestamp;P1;durP1;ratioP1;P2;durP2;ratioP2
53519;SDS011;39397;53.204;5.778;2023-04-16T00:02:19;60.08;;;20.83;;
53519;SDS011;39397;53.204;5.778;2023-04-16T00:04:45;59.90;;;18.75;;
53519;SDS011;39397;53.204;5.778;2023-04-16T00:07:11;59.10;;;21.63;;
53519;SDS011;39397;53.204;5.778;2023-04-16T00:09:37;62.30;;;18.48;;
53519;SDS011;39397;53.204;5.778;2023-04-16T00:12:03;56.00;;;19.15;;
53519;SDS011;39397;53.204;5.778;2023-04-16T00:14:30;50.95;;;18.55;;
53519;SDS011;39397;53.204;5.778;2023-04-16T00:16:56;49.97;;;18.00;;
53519;SDS011;39397;53.204;5.778;2023-04-16T00:19:21;61.20;;;18.45;;
53519;SDS011;39397;53.204;5.778;2023-04-16T00:21:47;53.35;;;16.55;;
53519;SDS011;39397;53.204;5.778;2023-04-16T00:24:12;50.05;;;16.40;;
53519;SDS011;39397;53.204;5.778;2023-04-16T00:26:38;51.63;;;15.93;;
53519;SDS011;39397;53.204;5.778;2023-04-16T00:29:05;50.25;;;18.65;;
53519;SDS011;39397;53.204;5.778;2023-04-16T00:31:31;48.47;;;17.77;;
53519;SDS011;39397;53.204;5.778;2023-04-16T00:33:57;49.40;;;17.75;;
53519;SDS011;39397;53.204;5.778;2023-04-16T00:36:24;46.80;;;16.92;;
53519;SDS011;39397;53.204;5.778;2023-04-16T00:38:51;46.28;;;16.13;;
53519;SDS011;39397;53.204;5.778;2023-04-16T00:41:17;56.92;;;19.40;;
53519;SDS011;39397;53.204;5.778;2023-04-16T00:43:43;47.05;;;17.85;;
53519;SDS011;39397;53.204;5.778;2023-04-16T00:46:08;52.08;;;18.58;;
53519;SDS011;39397;53.204;5.778;2023-04-16T00:48:38;45.00;;;20.45;;
53519;SDS011;39397;53.204;5.778;2023-04-16T00:51:05;52.90;;;19.08;;
53519;SDS011;39397;53.204;5.778;2023-04-16T00:53:32;43.10;;;17.88;;
53519;SDS011;39397;53.204;5.778;2023-04-16T00:56:01;44.38;;;17.83;;
53519;SDS011;39397;53.204;5.778;2023-04-16T00:58:28;36.88;;;15.57;;
53519;SDS011;39397;53.204;5.778;2023-04-16T01:00:54;40.67;;;16.63;;
53519;SDS011;39397;53.204;5.778;2023-04-16T01:03:20;42.83;;;17.77;;
53519;SDS011;39397;53.204;5.778;2023-04-16T01:05:47;36.63;;;16.33;;
53519;SDS011;39397;53.204;5.778;2023-04-16T01:08:17;41.65;;;17.98;;
53519;SDS011;39397;53.204;5.778;2023-04-16T01:10:44;44.08;;;17.23;;
53519;SDS011;39397;53.204;5.778;2023-04-16T01:13:10;45.53;;;16.65;;
53519;SDS011;39397;53.204;5.778;2023-04-16T01:15:36;49.65;;;19.60;;
53519;SDS011;39397;53.204;5.778;2023-04-16T01:18:02;54.20;;;21.02;;
53519;SDS011;39397;53.204;5.778;2023-04-16T01:20:38;63.90;;;21.85;;
53519;SDS011;39397;53.204;5.778;2023-04-16T01:23:04;60.88;;;22.70;;
53519;SDS011;39397;53.204;5.778;2023-04-16T01:25:30;54.78;;;21.60;;
53519;SDS011;39397;53.204;5.778;2023-04-16T01:27:56;53.40;;;21.08;;
53519;SDS011;39397;53.204;5.778;2023-04-16T01:30:23;55.13;;;20.15;;
53519;SDS011;39397;53.204;5.778;2023-04-16T01:32:49;57.10;;;22.02;;
53519;SDS011;39397;53.204;5.778;2023-04-16T01:35:15;59.97;;;20.95;;
53519;SDS011;39397;53.204;5.778;2023-04-16T01:37:42;59.28;;;21.65;;
53519;SDS011;39397;53.204;5.778;2023-04-16T01:40:08;60.70;;;20.05;;
53519;SDS011;39397;53.204;5.778;2023-04-16T01:42:34;56.25;;;19.65;;
53519;SDS011;39397;53.204;5.778;2023-04-16T01:45:01;59.47;;;20.63;;
53519;SDS011;39397;53.204;5.778;2023-04-16T01:47:27;64.55;;;22.83;;
53519;SDS011;39397;53.204;5.778;2023-04-16T01:49:52;69.72;;;23.15;;
53519;SDS011;39397;53.204;5.778;2023-04-16T01:52:18;69.03;;;24.25;;
53519;SDS011;39397;53.204;5.778;2023-04-16T01:54:45;77.63;;;23.83;;
53519;SDS011;39397;53.204;5.778;2023-04-16T01:57:16;78.15;;;25.02;;
53519;SDS011;39397;53.204;5.778;2023-04-16T01:59:42;70.40;;;24.05;;
53519;SDS011;39397;53.204;5.778;2023-04-16T02:02:09;76.28;;;24.83;;
53519;SDS011;39397;53.204;5.778;2023-04-16T02:04:38;71.35;;;24.77;;
53519;SDS011;39397;53.204;5.778;2023-04-16T02:07:05;59.90;;;22.92;;
53519;SDS011;39397;53.204;5.778;2023-04-16T02:09:35;64.75;;;22.48;;
53519;SDS011;39397;53.204;5.778;2023-04-16T02:12:02;60.38;;;22.52;;
53519;SDS011;39397;53.204;5.778;2023-04-16T02:14:28;69.88;;;25.25;;
53519;SDS011;39397;53.204;5.778;2023-04-16T02:16:54;68.05;;;25.08;;
53519;SDS011;39397;53.204;5.778;2023-04-16T02:19:20;73.25;;;24.13;;
53519;SDS011;39397;53.204;5.778;2023-04-16T02:21:47;78.70;;;26.55;;
53519;SDS011;39397;53.204;5.778;2023-04-16T02:24:15;74.55;;;25.77;;
53519;SDS011;39397;53.204;5.778;2023-04-16T02:26:40;72.00;;;25.15;;
53519;SDS011;39397;53.204;5.778;2023-04-16T02:29:06;57.78;;;22.77;;
53519;SDS011;39397;53.204;5.778;2023-04-16T02:31:32;65.80;;;26.05;;
53519;SDS011;39397;53.204;5.778;2023-04-16T02:33:58;64.82;;;24.83;;
53519;SDS011;39397;53.204;5.778;2023-04-16T02:36:23;69.20;;;25.52;;
53519;SDS011;39397;53.204;5.778;2023-04-16T02:38:49;66.35;;;23.55;;
53519;SDS011;39397;53.204;5.778;2023-04-16T02:41:15;69.28;;;23.95;;
53519;SDS011;39397;53.204;5.778;2023-04-16T02:43:41;70.53;;;27.00;;
53519;SDS011;39397;53.204;5.778;2023-04-16T02:46:07;74.95;;;26.05;;
53519;SDS011;39397;53.204;5.778;2023-04-16T02:48:32;74.75;;;25.48;;
53519;SDS011;39397;53.204;5.778;2023-04-16T02:50:58;82.38;;;28.42;;
53519;SDS011;39397;53.204;5.778;2023-04-16T02:53:24;77.30;;;28.02;;
53519;SDS011;39397;53.204;5.778;2023-04-16T02:55:50;75.80;;;28.70;;
53519;SDS011;39397;53.204;5.778;2023-04-16T02:58:17;74.25;;;30.55;;
53519;SDS011;39397;53.204;5.778;2023-04-16T03:00:44;73.65;;;29.55;;
53519;SDS011;39397;53.204;5.778;2023-04-16T03:03:10;71.13;;;28.05;;
53519;SDS011;39397;53.204;5.778;2023-04-16T03:05:36;79.25;;;31.42;;
53519;SDS011;39397;53.204;5.778;2023-04-16T03:08:04;79.47;;;30.00;;
53519;SDS011;39397;53.204;5.778;2023-04-16T03:10:30;76.03;;;30.27;;
53519;SDS011;39397;53.204;5.778;2023-04-16T03:12:56;74.93;;;30.55;;
53519;SDS011;39397;53.204;5.778;2023-04-16T03:15:23;77.50;;;28.70;;
53519;SDS011;39397;53.204;5.778;2023-04-16T03:17:50;72.63;;;28.20;;
53519;SDS011;39397;53.204;5.778;2023-04-16T03:20:16;75.13;;;29.15;;
53519;SDS011;39397;53.204;5.778;2023-04-16T03:22:43;77.53;;;29.95;;
53519;SDS011;39397;53.204;5.778;2023-04-16T03:25:08;74.05;;;29.73;;
53519;SDS011;39397;53.204;5.778;2023-04-16T03:27:34;76.47;;;28.33;;
53519;SDS011;39397;53.204;5.778;2023-04-16T03:30:00;82.35;;;32.58;;
53519;SDS011;39397;53.204;5.778;2023-04-16T03:32:26;69.93;;;29.05;;
53519;SDS011;39397;53.204;5.778;2023-04-16T03:34:52;76.40;;;29.77;;
53519;SDS011;39397;53.204;5.778;2023-04-16T03:37:17;69.30;;;30.77;;
53519;SDS011;39397;53.204;5.778;2023-04-16T03:39:43;70.35;;;28.80;;
53519;SDS011;39397;53.204;5.778;2023-04-16T03:42:08;59.38;;;27.30;;
53519;SDS011;39397;53.204;5.778;2023-04-16T03:44:34;63.63;;;26.23;;
53519;SDS011;39397;53.204;5.778;2023-04-16T03:47:00;75.65;;;29.00;;
53519;SDS011;39397;53.204;5.778;2023-04-16T03:49:26;68.25;;;28.27;;
53519;SDS011;39397;53.204;5.778;2023-04-16T03:51:51;65.25;;;25.73;;
53519;SDS011;39397;53.204;5.778;2023-04-16T03:54:17;67.30;;;27.65;;
53519;SDS011;39397;53.204;5.778;2023-04-16T03:56:43;64.63;;;27.98;;
53519;SDS011;39397;53.204;5.778;2023-04-16T03:59:09;73.40;;;27.15;;
53519;SDS011;39397;53.204;5.778;2023-04-16T04:01:34;66.95;;;27.25;;
53519;SDS011;39397;53.204;5.778;2023-04-16T04:04:00;70.65;;;27.65;;
53519;SDS011;39397;53.204;5.778;2023-04-16T04:06:26;78.18;;;27.02;;
53519;SDS011;39397;53.204;5.778;2023-04-16T04:08:52;82.07;;;28.00;;
53519;SDS011;39397;53.204;5.778;2023-04-16T04:11:18;72.22;;;26.95;;
53519;SDS011;39397;53.204;5.778;2023-04-16T04:13:44;74.63;;;28.52;;
53519;SDS011;39397;53.204;5.778;2023-04-16T04:16:10;71.47;;;27.67;;
53519;SDS011;39397;53.204;5.778;2023-04-16T04:18:36;78.80;;;26.25;;
53519;SDS011;39397;53.204;5.778;2023-04-16T04:21:08;74.10;;;25.23;;
53519;SDS011;39397;53.204;5.778;2023-04-16T04:23:34;76.65;;;26.70;;
53519;SDS011;39397;53.204;5.778;2023-04-16T04:26:00;67.75;;;25.40;;
53519;SDS011;39397;53.204;5.778;2023-04-16T04:28:32;69.22;;;23.50;;
53519;SDS011;39397;53.204;5.778;2023-04-16T04:30:59;67.78;;;25.92;;
53519;SDS011;39397;53.204;5.778;2023-04-16T04:33:25;65.68;;;26.42;;
53519;SDS011;39397;53.204;5.778;2023-04-16T04:35:51;61.78;;;26.58;;
53519;SDS011;39397;53.204;5.778;2023-04-16T04:38:17;70.85;;;26.15;;
53519;SDS011;39397;53.204;5.778;2023-04-16T04:40:45;75.63;;;25.02;;
53519;SDS011;39397;53.204;5.778;2023-04-16T04:43:11;67.82;;;21.13;;
53519;SDS011;39397;53.204;5.778;2023-04-16T04:45:36;56.35;;;19.75;;
53519;SDS011;39397;53.204;5.778;2023-04-16T04:48:02;57.45;;;18.10;;
53519;SDS011;39397;53.204;5.778;2023-04-16T04:50:28;65.68;;;19.35;;
53519;SDS011;39397;53.204;5.778;2023-04-16T04:52:53;71.53;;;17.20;;
53519;SDS011;39397;53.204;5.778;2023-04-16T04:55:19;57.95;;;17.85;;
53519;SDS011;39397;53.204;5.778;2023-04-16T04:57:45;65.80;;;19.38;;
53519;SDS011;39397;53.204;5.778;2023-04-16T05:00:11;75.15;;;18.55;;
53519;SDS011;39397;53.204;5.778;2023-04-16T05:02:36;54.35;;;17.13;;
53519;SDS011;39397;53.204;5.778;2023-04-16T05:05:03;53.58;;;18.40;;
53519;SDS011;39397;53.204;5.778;2023-04-16T05:07:29;60.20;;;20.75;;
53519;SDS011;39397;53.204;5.778;2023-04-16T05:09:55;58.33;;;19.58;;
53519;SDS011;39397;53.204;5.778;2023-04-16T05:12:21;52.58;;;17.48;;
53519;SDS011;39397;53.204;5.778;2023-04-16T05:14:48;59.83;;;18.95;;
53519;SDS011;39397;53.204;5.778;2023-04-16T05:17:13;57.30;;;18.15;;
53519;SDS011;39397;53.204;5.778;2023-04-16T05:19:39;61.70;;;19.38;;
53519;SDS011;39397;53.204;5.778;2023-04-16T05:22:05;62.80;;;20.23;;
53519;SDS011;39397;53.204;5.778;2023-04-16T05:24:31;63.85;;;18.10;;
53519;SDS011;39397;53.204;5.778;2023-04-16T05:26:56;53.45;;;19.23;;
53519;SDS011;39397;53.204;5.778;2023-04-16T05:29:22;61.05;;;18.95;;
53519;SDS011;39397;53.204;5.778;2023-04-16T05:31:48;64.85;;;19.55;;
53519;SDS011;39397;53.204;5.778;2023-04-16T05:34:14;63.08;;;20.58;;
53519;SDS011;39397;53.204;5.778;2023-04-16T05:36:39;71.75;;;20.95;;
53519;SDS011;39397;53.204;5.778;2023-04-16T05:39:05;61.83;;;23.15;;
53519;SDS011;39397;53.204;5.778;2023-04-16T05:41:32;73.82;;;24.00;;
53519;SDS011;39397;53.204;5.778;2023-04-16T05:43:58;87.93;;;23.48;;
53519;SDS011;39397;53.204;5.778;2023-04-16T05:46:24;58.75;;;21.65;;
53519;SDS011;39397;53.204;5.778;2023-04-16T05:48:50;56.67;;;19.90;;
53519;SDS011;39397;53.204;5.778;2023-04-16T05:51:15;53.15;;;20.30;;
53519;SDS011;39397;53.204;5.778;2023-04-16T05:53:41;66.85;;;20.48;;
53519;SDS011;39397;53.204;5.778;2023-04-16T05:56:07;68.22;;;22.17;;
53519;SDS011;39397;53.204;5.778;2023-04-16T05:58:32;61.60;;;20.58;;
53519;SDS011;39397;53.204;5.778;2023-04-16T06:00:58;58.92;;;20.58;;
53519;SDS011;39397;53.204;5.778;2023-04-16T06:03:25;53.33;;;18.90;;
53519;SDS011;39397;53.204;5.778;2023-04-16T06:05:51;50.08;;;18.73;;
53519;SDS011;39397;53.204;5.778;2023-04-16T06:08:17;54.70;;;19.75;;
53519;SDS011;39397;53.204;5.778;2023-04-16T06:10:46;66.10;;;20.50;;
53519;SDS011;39397;53.204;5.778;2023-04-16T06:13:12;53.70;;;19.33;;
53519;SDS011;39397;53.204;5.778;2023-04-16T06:15:37;73.78;;;25.42;;
53519;SDS011;39397;53.204;5.778;2023-04-16T06:18:03;54.20;;;19.33;;
53519;SDS011;39397;53.204;5.778;2023-04-16T06:20:29;51.72;;;19.70;;
53519;SDS011;39397;53.204;5.778;2023-04-16T06:22:55;51.83;;;20.42;;
53519;SDS011;39397;53.204;5.778;2023-04-16T06:25:21;50.13;;;19.45;;
53519;SDS011;39397;53.204;5.778;2023-04-16T06:27:47;51.88;;;21.10;;
53519;SDS011;39397;53.204;5.778;2023-04-16T06:30:13;47.38;;;19.52;;
53519;SDS011;39397;53.204;5.778;2023-04-16T06:32:40;47.08;;;19.42;;
53519;SDS011;39397;53.204;5.778;2023-04-16T06:35:07;45.70;;;18.50;;
53519;SDS011;39397;53.204;5.778;2023-04-16T06:37:33;58.33;;;20.58;;
53519;SDS011;39397;53.204;5.778;2023-04-16T06:39:59;63.78;;;18.77;;
53519;SDS011;39397;53.204;5.778;2023-04-16T06:42:25;60.03;;;22.27;;
53519;SDS011;39397;53.204;5.778;2023-04-16T06:44:51;54.50;;;19.50;;
53519;SDS011;39397;53.204;5.778;2023-04-16T06:47:17;63.45;;;21.77;;
53519;SDS011;39397;53.204;5.778;2023-04-16T06:49:42;53.38;;;19.75;;
53519;SDS011;39397;53.204;5.778;2023-04-16T06:52:08;52.47;;;19.58;;
53519;SDS011;39397;53.204;5.778;2023-04-16T06:54:34;45.83;;;17.77;;
53519;SDS011;39397;53.204;5.778;2023-04-16T06:57:00;50.10;;;17.73;;
53519;SDS011;39397;53.204;5.778;2023-04-16T06:59:26;39.65;;;14.90;;
53519;SDS011;39397;53.204;5.778;2023-04-16T07:01:51;40.42;;;15.50;;
53519;SDS011;39397;53.204;5.778;2023-04-16T07:04:23;38.65;;;14.70;;
53519;SDS011;39397;53.204;5.778;2023-04-16T07:06:49;43.03;;;14.48;;
53519;SDS011;39397;53.204;5.778;2023-04-16T07:09:15;39.15;;;14.57;;
53519;SDS011;39397;53.204;5.778;2023-04-16T07:11:44;35.28;;;13.18;;
53519;SDS011;39397;53.204;5.778;2023-04-16T07:14:09;35.22;;;14.57;;
53519;SDS011;39397;53.204;5.778;2023-04-16T07:16:35;34.90;;;14.27;;
53519;SDS011;39397;53.204;5.778;2023-04-16T07:19:01;42.30;;;14.18;;
53519;SDS011;39397;53.204;5.778;2023-04-16T07:21:27;35.80;;;14.15;;
53519;SDS011;39397;53.204;5.778;2023-04-16T07:23:53;45.80;;;15.40;;
53519;SDS011;39397;53.204;5.778;2023-04-16T07:26:19;40.28;;;14.60;;
53519;SDS011;39397;53.204;5.778;2023-04-16T07:28:45;36.85;;;12.65;;
53519;SDS011;39397;53.204;5.778;2023-04-16T07:31:11;38.80;;;13.05;;
53519;SDS011;39397;53.204;5.778;2023-04-16T07:33:36;41.47;;;13.65;;
53519;SDS011;39397;53.204;5.778;2023-04-16T07:36:02;36.97;;;13.95;;
53519;SDS011;39397;53.204;5.778;2023-04-16T07:38:28;41.08;;;15.93;;
53519;SDS011;39397;53.204;5.778;2023-04-16T07:40:54;32.42;;;14.35;;
53519;SDS011;39397;53.204;5.778;2023-04-16T07:43:20;37.92;;;14.82;;
53519;SDS011;39397;53.204;5.778;2023-04-16T07:45:46;33.20;;;13.63;;
53519;SDS011;39397;53.204;5.778;2023-04-16T07:48:12;44.67;;;15.80;;
53519;SDS011;39397;53.204;5.778;2023-04-16T07:50:38;35.53;;;14.32;;
53519;SDS011;39397;53.204;5.778;2023-04-16T07:53:03;40.80;;;14.13;;
53519;SDS011;39397;53.204;5.778;2023-04-16T07:55:31;42.38;;;14.48;;
53519;SDS011;39397;53.204;5.778;2023-04-16T07:57:57;38.53;;;15.27;;
53519;SDS011;39397;53.204;5.778;2023-04-16T08:00:22;41.40;;;14.57;;
53519;SDS011;39397;53.204;5.778;2023-04-16T08:02:48;37.05;;;14.07;;
53519;SDS011;39397;53.204;5.778;2023-04-16T08:05:14;46.47;;;14.00;;
53519;SDS011;39397;53.204;5.778;2023-04-16T08:07:40;38.60;;;14.82;;
53519;SDS011;39397;53.204;5.778;2023-04-16T08:10:05;41.30;;;15.23;;
53519;SDS011;39397;53.204;5.778;2023-04-16T08:12:32;41.92;;;14.45;;
53519;SDS011;39397;53.204;5.778;2023-04-16T08:14:57;38.75;;;14.15;;
53519;SDS011;39397;53.204;5.778;2023-04-16T08:17:23;39.25;;;14.95;;
53519;SDS011;39397;53.204;5.778;2023-04-16T08:19:49;32.38;;;13.75;;
53519;SDS011;39397;53.204;5.778;2023-04-16T08:22:14;37.25;;;14.18;;
53519;SDS011;39397;53.204;5.778;2023-04-16T08:24:41;33.20;;;13.73;;
53519;SDS011;39397;53.204;5.778;2023-04-16T08:27:06;39.92;;;13.95;;
53519;SDS011;39397;53.204;5.778;2023-04-16T08:29:32;41.13;;;14.50;;
53519;SDS011;39397;53.204;5.778;2023-04-16T08:31:58;41.75;;;13.98;;
53519;SDS011;39397;53.204;5.778;2023-04-16T08:34:24;34.33;;;13.38;;
53519;SDS011;39397;53.204;5.778;2023-04-16T08:36:50;45.42;;;15.65;;
53519;SDS011;39397;53.204;5.778;2023-04-16T08:39:16;44.75;;;15.50;;
53519;SDS011;39397;53.204;5.778;2023-04-16T08:41:43;46.65;;;15.82;;
53519;SDS011;39397;53.204;5.778;2023-04-16T08:44:13;40.88;;;14.85;;
53519;SDS011;39397;53.204;5.778;2023-04-16T08:46:51;41.05;;;14.48;;
53519;SDS011;39397;53.204;5.778;2023-04-16T08:49:23;41.17;;;13.25;;
53519;SDS011;39397;53.204;5.778;2023-04-16T08:51:50;36.20;;;13.35;;
53519;SDS011;39397;53.204;5.778;2023-04-16T08:54:23;38.40;;;14.35;;
53519;SDS011;39397;53.204;5.778;2023-04-16T08:56:52;35.33;;;12.13;;
53519;SDS011;39397;53.204;5.778;2023-04-16T08:59:19;37.90;;;13.27;;
53519;SDS011;39397;53.204;5.778;2023-04-16T09:01:46;34.97;;;13.40;;
53519;SDS011;39397;53.204;5.778;2023-04-16T09:04:13;30.83;;;12.65;;
53519;SDS011;39397;53.204;5.778;2023-04-16T09:06:41;37.08;;;13.18;;
53519;SDS011;39397;53.204;5.778;2023-04-16T09:09:07;37.80;;;13.93;;
53519;SDS011;39397;53.204;5.778;2023-04-16T09:11:35;32.20;;;13.60;;
53519;SDS011;39397;53.204;5.778;2023-04-16T09:14:02;35.50;;;15.05;;
53519;SDS011;39397;53.204;5.778;2023-04-16T09:16:33;41.85;;;14.35;;
53519;SDS011;39397;53.204;5.778;2023-04-16T09:18:59;34.70;;;13.48;;
53519;SDS011;39397;53.204;5.778;2023-04-16T09:21:25;40.50;;;13.48;;
53519;SDS011;39397;53.204;5.778;2023-04-16T09:23:52;35.92;;;14.88;;
53519;SDS011;39397;53.204;5.778;2023-04-16T09:26:18;40.13;;;13.85;;
53519;SDS011;39397;53.204;5.778;2023-04-16T09:28:46;28.27;;;13.07;;
53519;SDS011;39397;53.204;5.778;2023-04-16T09:31:16;35.47;;;13.90;;
53519;SDS011;39397;53.204;5.778;2023-04-16T09:36:26;32.50;;;13.45;;
53519;SDS011;39397;53.204;5.778;2023-04-16T09:38:54;35.33;;;12.45;;
53519;SDS011;39397;53.204;5.778;2023-04-16T09:41:23;31.08;;;11.63;;
53519;SDS011;39397;53.204;5.778;2023-04-16T09:44:01;29.92;;;12.80;;
53519;SDS011;39397;53.204;5.778;2023-04-16T09:46:33;27.85;;;11.85;;
53519;SDS011;39397;53.204;5.778;2023-04-16T09:49:09;31.52;;;12.43;;
53519;SDS011;39397;53.204;5.778;2023-04-16T09:51:42;27.80;;;12.00;;
53519;SDS011;39397;53.204;5.778;2023-04-16T09:54:09;34.10;;;13.32;;
53519;SDS011;39397;53.204;5.778;2023-04-16T09:56:39;27.08;;;11.77;;
53519;SDS011;39397;53.204;5.778;2023-04-16T09:59:07;30.17;;;12.30;;
53519;SDS011;39397;53.204;5.778;2023-04-16T10:01:41;30.95;;;12.80;;
53519;SDS011;39397;53.204;5.778;2023-04-16T10:04:10;32.85;;;12.02;;
53519;SDS011;39397;53.204;5.778;2023-04-16T10:06:35;38.00;;;13.48;;
53519;SDS011;39397;53.204;5.778;2023-04-16T10:09:01;30.90;;;13.50;;
53519;SDS011;39397;53.204;5.778;2023-04-16T10:11:31;31.67;;;13.65;;
53519;SDS011;39397;53.204;5.778;2023-04-16T10:13:57;37.05;;;13.98;;
53519;SDS011;39397;53.204;5.778;2023-04-16T10:16:24;32.13;;;13.60;;
53519;SDS011;39397;53.204;5.778;2023-04-16T10:19:00;38.95;;;14.07;;
53519;SDS011;39397;53.204;5.778;2023-04-16T10:21:26;28.83;;;14.30;;
53519;SDS011;39397;53.204;5.778;2023-04-16T10:23:57;27.00;;;13.15;;
53519;SDS011;39397;53.204;5.778;2023-04-16T10:26:24;34.10;;;15.70;;
53519;SDS011;39397;53.204;5.778;2023-04-16T10:28:50;35.65;;;16.15;;
53519;SDS011;39397;53.204;5.778;2023-04-16T10:31:16;25.70;;;13.27;;
53519;SDS011;39397;53.204;5.778;2023-04-16T10:33:42;25.08;;;14.02;;
53519;SDS011;39397;53.204;5.778;2023-04-16T10:36:12;26.92;;;13.98;;
53519;SDS011;39397;53.204;5.778;2023-04-16T10:38:48;26.58;;;13.73;;
53519;SDS011;39397;53.204;5.778;2023-04-16T10:41:17;25.40;;;14.00;;
53519;SDS011;39397;53.204;5.778;2023-04-16T10:43:45;27.65;;;14.63;;
53519;SDS011;39397;53.204;5.778;2023-04-16T10:46:22;30.92;;;13.98;;
53519;SDS011;39397;53.204;5.778;2023-04-16T10:48:57;30.88;;;15.05;;
53519;SDS011;39397;53.204;5.778;2023-04-16T10:51:29;27.08;;;14.52;;
53519;SDS011;39397;53.204;5.778;2023-04-16T10:56:33;25.52;;;13.00;;
53519;SDS011;39397;53.204;5.778;2023-04-16T10:59:00;22.45;;;12.95;;
53519;SDS011;39397;53.204;5.778;2023-04-16T11:01:30;29.65;;;14.07;;
53519;SDS011;39397;53.204;5.778;2023-04-16T11:04:01;24.27;;;13.35;;
53519;SDS011;39397;53.204;5.778;2023-04-16T11:09:54;36.00;;;17.05;;
53519;SDS011;39397;53.204;5.778;2023-04-16T11:12:38;32.20;;;14.15;;
53519;SDS011;39397;53.204;5.778;2023-04-16T11:15:06;31.30;;;14.13;;
53519;SDS011;39397;53.204;5.778;2023-04-16T11:17:35;33.33;;;13.88;;
53519;SDS011;39397;53.204;5.778;2023-04-16T11:20:01;31.52;;;13.73;;
53519;SDS011;39397;53.204;5.778;2023-04-16T11:22:29;28.95;;;13.10;;
53519;SDS011;39397;53.204;5.778;2023-04-16T11:24:55;35.60;;;14.07;;
53519;SDS011;39397;53.204;5.778;2023-04-16T11:27:22;23.15;;;14.18;;
53519;SDS011;39397;53.204;5.778;2023-04-16T11:30:04;29.48;;;12.70;;
53519;SDS011;39397;53.204;5.778;2023-04-16T11:32:33;26.40;;;14.02;;
53519;SDS011;39397;53.204;5.778;2023-04-16T11:35:01;20.95;;;13.48;;
53519;SDS011;39397;53.204;5.778;2023-04-16T11:37:35;34.33;;;15.27;;
53519;SDS011;39397;53.204;5.778;2023-04-16T11:40:02;27.85;;;14.70;;
53519;SDS011;39397;53.204;5.778;2023-04-16T11:42:34;30.00;;;15.00;;
53519;SDS011;39397;53.204;5.778;2023-04-16T11:45:01;26.23;;;14.48;;
53519;SDS011;39397;53.204;5.778;2023-04-16T11:47:28;34.25;;;14.40;;
53519;SDS011;39397;53.204;5.778;2023-04-16T11:49:55;25.40;;;14.25;;
53519;SDS011;39397;53.204;5.778;2023-04-16T11:52:29;27.60;;;15.10;;
53519;SDS011;39397;53.204;5.778;2023-04-16T11:57:23;29.60;;;14.65;;
53519;SDS011;39397;53.204;5.778;2023-04-16T11:59:48;29.13;;;16.98;;
53519;SDS011;39397;53.204;5.778;2023-04-16T12:02:14;32.97;;;15.90;;
53519;SDS011;39397;53.204;5.778;2023-04-16T12:04:40;26.17;;;14.00;;
53519;SDS011;39397;53.204;5.778;2023-04-16T12:09:39;21.58;;;12.77;;
53519;SDS011;39397;53.204;5.778;2023-04-16T12:12:23;27.08;;;13.13;;
53519;SDS011;39397;53.204;5.778;2023-04-16T12:14:54;27.38;;;13.95;;
53519;SDS011;39397;53.204;5.778;2023-04-16T12:17:21;23.55;;;13.65;;
53519;SDS011;39397;53.204;5.778;2023-04-16T12:19:51;24.13;;;13.65;;
53519;SDS011;39397;53.204;5.778;2023-04-16T12:22:32;27.42;;;13.13;;
53519;SDS011;39397;53.204;5.778;2023-04-16T12:25:03;26.33;;;13.38;;
53519;SDS011;39397;53.204;5.778;2023-04-16T12:30:16;24.65;;;14.40;;
53519;SDS011;39397;53.204;5.778;2023-04-16T12:32:45;26.02;;;14.18;;
53519;SDS011;39397;53.204;5.778;2023-04-16T12:35:12;26.10;;;12.85;;
53519;SDS011;39397;53.204;5.778;2023-04-16T12:37:38;24.45;;;14.50;;
53519;SDS011;39397;53.204;5.778;2023-04-16T12:40:04;25.90;;;14.38;;
53519;SDS011;39397;53.204;5.778;2023-04-16T12:42:31;24.90;;;13.35;;
53519;SDS011;39397;53.204;5.778;2023-04-16T12:45:00;24.27;;;15.05;;
53519;SDS011;39397;53.204;5.778;2023-04-16T12:47:27;22.23;;;13.38;;
53519;SDS011;39397;53.204;5.778;2023-04-16T12:49:54;24.25;;;13.82;;
53519;SDS011;39397;53.204;5.778;2023-04-16T12:52:21;24.75;;;14.07;;
53519;SDS011;39397;53.204;5.778;2023-04-16T12:54:47;22.13;;;13.85;;
53519;SDS011;39397;53.204;5.778;2023-04-16T12:57:13;28.88;;;14.68;;
53519;SDS011;39397;53.204;5.778;2023-04-16T12:59:38;25.98;;;14.55;;
53519;SDS011;39397;53.204;5.778;2023-04-16T13:02:04;20.02;;;12.50;;
53519;SDS011;39397;53.204;5.778;2023-04-16T13:04:31;21.05;;;13.32;;
53519;SDS011;39397;53.204;5.778;2023-04-16T13:06:56;21.17;;;12.88;;
53519;SDS011;39397;53.204;5.778;2023-04-16T13:09:22;24.05;;;13.70;;
53519;SDS011;39397;53.204;5.778;2023-04-16T13:11:48;24.90;;;14.23;;
53519;SDS011;39397;53.204;5.778;2023-04-16T13:14:14;22.95;;;13.23;;
53519;SDS011;39397;53.204;5.778;2023-04-16T13:16:40;22.30;;;13.75;;
53519;SDS011;39397;53.204;5.778;2023-04-16T13:19:05;21.42;;;12.90;;
53519;SDS011;39397;53.204;5.778;2023-04-16T13:21:32;23.25;;;13.65;;
53519;SDS011;39397;53.204;5.778;2023-04-16T13:23:58;20.98;;;12.63;;
53519;SDS011;39397;53.204;5.778;2023-04-16T13:26:24;21.67;;;12.68;;
53519;SDS011;39397;53.204;5.778;2023-04-16T13:28:50;25.48;;;13.80;;
53519;SDS011;39397;53.204;5.778;2023-04-16T13:31:16;27.63;;;14.43;;
53519;SDS011;39397;53.204;5.778;2023-04-16T13:33:44;24.58;;;13.35;;
53519;SDS011;39397;53.204;5.778;2023-04-16T13:36:11;25.17;;;13.93;;
53519;SDS011;39397;53.204;5.778;2023-04-16T13:38:36;22.73;;;13.35;;
53519;SDS011;39397;53.204;5.778;2023-04-16T13:41:03;25.80;;;14.05;;
53519;SDS011;39397;53.204;5.778;2023-04-16T13:43:30;23.30;;;14.02;;
53519;SDS011;39397;53.204;5.778;2023-04-16T13:45:56;22.45;;;12.88;;
53519;SDS011;39397;53.204;5.778;2023-04-16T13:48:22;19.80;;;13.50;;
53519;SDS011;39397;53.204;5.778;2023-04-16T13:50:48;25.30;;;13.63;;
53519;SDS011;39397;53.204;5.778;2023-04-16T13:53:14;18.58;;;12.30;;
53519;SDS011;39397;53.204;5.778;2023-04-16T13:55:40;21.65;;;13.07;;
53519;SDS011;39397;53.204;5.778;2023-04-16T13:58:07;21.92;;;13.82;;
53519;SDS011;39397;53.204;5.778;2023-04-16T14:00:32;21.33;;;13.52;;
53519;SDS011;39397;53.204;5.778;2023-04-16T14:02:58;23.35;;;13.82;;
53519;SDS011;39397;53.204;5.778;2023-04-16T14:05:24;22.45;;;13.65;;
53519;SDS011;39397;53.204;5.778;2023-04-16T14:07:50;22.02;;;13.43;;
53519;SDS011;39397;53.204;5.778;2023-04-16T14:10:15;21.75;;;12.93;;
53519;SDS011;39397;53.204;5.778;2023-04-16T14:12:42;25.73;;;14.57;;
53519;SDS011;39397;53.204;5.778;2023-04-16T14:15:08;21.63;;;14.02;;
53519;SDS011;39397;53.204;5.778;2023-04-16T14:17:34;20.08;;;13.50;;
53519;SDS011;39397;53.204;5.778;2023-04-16T14:20:03;22.35;;;14.25;;
53519;SDS011;39397;53.204;5.778;2023-04-16T14:22:30;25.02;;;15.18;;
53519;SDS011;39397;53.204;5.778;2023-04-16T14:24:56;24.88;;;14.60;;
53519;SDS011;39397;53.204;5.778;2023-04-16T14:27:23;21.80;;;13.48;;
53519;SDS011;39397;53.204;5.778;2023-04-16T14:29:48;23.83;;;15.48;;
53519;SDS011;39397;53.204;5.778;2023-04-16T14:32:14;22.83;;;15.25;;
53519;SDS011;39397;53.204;5.778;2023-04-16T14:34:40;26.38;;;14.77;;
53519;SDS011;39397;53.204;5.778;2023-04-16T14:37:06;20.67;;;14.05;;